createdAt,value
2023-05-06T00:00:15.496Z,95397.00
2023-05-06T00:01:17.825Z,95397.78
2023-05-06T00:02:22.327Z,95404.97
2023-05-06T00:03:24.219Z,95397.25
2023-05-06T00:04:26.875Z,95388.22
2023-05-06T00:05:28.809Z,95389.28
2023-05-06T00:06:30.568Z,95392.47
2023-05-06T00:07:32.106Z,95395.66
2023-05-06T00:08:35.735Z,95391.41
2023-05-06T00:09:37.454Z,95394.34
2023-05-06T00:10:39.012Z,95393.53
2023-05-06T00:11:42.877Z,95393.81
2023-05-06T00:12:44.761Z,95400.44
2023-05-06T00:13:46.469Z,95397.53
2023-05-06T00:14:50.289Z,95398.31
2023-05-06T00:15:54.036Z,95399.91
2023-05-06T00:16:55.715Z,95403.38
2023-05-06T00:17:59.862Z,95403.63
2023-05-06T00:19:04.115Z,95398.84
2023-05-06T00:20:09.083Z,95406.56
2023-05-06T00:21:13.144Z,95393.53
2023-05-06T00:22:17.401Z,95395.66
2023-05-06T00:23:18.947Z,95389.28
2023-05-06T00:24:20.626Z,95389.81
2023-05-06T00:25:22.179Z,95395.66
2023-05-06T00:26:23.792Z,95391.41
2023-05-06T00:27:28.598Z,95392.47
2023-05-06T00:28:30.214Z,95390.31
2023-05-06T00:29:31.887Z,95391.41
2023-05-06T00:30:33.654Z,95386.59
2023-05-06T00:31:38.495Z,95384.72
2023-05-06T00:32:39.955Z,95386.28
2023-05-06T00:33:41.588Z,95390.31
2023-05-06T00:34:43.123Z,95384.97
2023-05-06T00:35:44.735Z,95383.38
2023-05-06T00:36:46.463Z,95378.50
2023-05-06T00:37:58.548Z,95378.78
2023-05-06T00:39:00.048Z,95376.66
2023-05-06T00:40:02.082Z,95375.53
2023-05-06T00:41:03.719Z,95381.63
2023-05-06T00:42:05.205Z,95383.50
2023-05-06T00:43:08.970Z,95380.56
2023-05-06T00:44:11.119Z,95384.56
2023-05-06T00:45:12.798Z,95385.84
2023-05-06T00:46:15.481Z,95383.19
2023-05-06T00:47:18.017Z,95393.25
2023-05-06T00:48:19.705Z,95384.75
2023-05-06T00:49:21.646Z,95391.91
2023-05-06T00:50:23.729Z,95395.63
2023-05-06T00:51:27.819Z,95399.09
2023-05-06T00:52:29.414Z,95392.41
2023-05-06T00:53:31.132Z,95397.47
2023-05-06T00:54:35.795Z,95395.34
2023-05-06T00:55:37.895Z,95393.97
2023-05-06T00:56:39.529Z,95400.63
2023-05-06T00:57:41.991Z,95397.13
2023-05-06T00:58:44.061Z,95392.03
2023-05-06T00:59:45.780Z,95396.78
2023-05-06T01:00:47.374Z,95392.22
2023-05-06T01:01:49.160Z,95394.03
2023-05-06T01:02:50.799Z,95389.75
2023-05-06T01:03:57.169Z,95380.94
2023-05-06T01:04:59.764Z,95388.88
2023-05-06T01:06:30.502Z,95388.31
2023-05-06T01:07:39.023Z,95390.44
2023-05-06T01:08:57.565Z,95390.19
2023-05-06T01:10:01.816Z,95388.28
2023-05-06T01:11:23.231Z,95390.66
2023-05-06T01:12:25.188Z,95402.31
2023-05-06T01:13:28.816Z,95403.38
2023-05-06T01:14:36.430Z,95396.19
2023-05-06T01:15:40.818Z,95395.41
2023-05-06T01:16:47.941Z,95398.28
2023-05-06T01:17:53.391Z,95400.72
2023-05-06T01:18:57.097Z,95393.78
2023-05-06T01:20:01.459Z,95394.69
2023-05-06T01:21:04.994Z,95393.13
2023-05-06T01:22:07.431Z,95390.25
2023-05-06T01:23:15.472Z,95387.56
2023-05-06T01:24:17.023Z,95386.22
2023-05-06T01:25:20.201Z,95384.63
2023-05-06T01:26:22.652Z,95381.47
2023-05-06T01:27:24.780Z,95386.53
2023-05-06T01:28:26.356Z,95384.72
2023-05-06T01:29:28.046Z,95383.38
2023-05-06T01:30:35.795Z,95382.88
2023-05-06T01:31:49.621Z,95385.84
2023-05-06T01:33:13.128Z,95385.59
2023-05-06T01:34:18.672Z,95385.84
2023-05-06T01:35:35.533Z,95383.69
2023-05-06T01:36:49.621Z,95387.59
2023-05-06T01:37:54.802Z,95390.25
2023-05-06T01:39:03.444Z,95385.19
2023-05-06T01:40:05.931Z,95391.28
2023-05-06T01:41:12.514Z,95387.59
2023-05-06T01:42:15.069Z,95387.09
2023-05-06T01:43:18.159Z,95386.59
2023-05-06T01:44:22.090Z,95385.28
2023-05-06T01:45:27.556Z,95391.13
2023-05-06T01:46:30.236Z,95384.31
2023-05-06T01:47:32.477Z,95388.28
2023-05-06T01:48:37.708Z,95391.19
2023-05-06T01:49:39.534Z,95380.84
2023-05-06T01:50:41.456Z,95392.00
2023-05-06T01:51:49.333Z,95394.41
2023-05-06T01:53:02.931Z,95388.03
2023-05-06T01:54:04.965Z,95385.41
2023-05-06T01:55:07.092Z,95391.75
2023-05-06T01:56:11.033Z,95380.09
2023-05-06T01:57:12.682Z,95384.06
2023-05-06T01:58:14.356Z,95383.00
2023-05-06T01:59:16.255Z,95383.28
2023-05-06T02:00:18.002Z,95384.88
2023-05-06T02:01:19.614Z,95386.47
2023-05-06T02:02:25.659Z,95386.47
2023-05-06T02:03:30.971Z,95386.47
2023-05-06T02:04:32.758Z,95392.56
2023-05-06T02:05:35.455Z,95391.28
2023-05-06T02:06:38.086Z,95393.16
2023-05-06T02:07:41.969Z,95388.97
2023-05-06T02:08:45.250Z,95390.28
2023-05-06T02:09:51.302Z,95386.34
2023-05-06T02:10:52.952Z,95383.41
2023-05-06T02:11:55.389Z,95386.06
2023-05-06T02:12:58.724Z,95392.72
2023-05-06T02:14:02.831Z,95400.94
2023-05-06T02:15:07.678Z,95396.16
2023-05-06T02:16:09.427Z,95399.34
2023-05-06T02:17:11.574Z,95399.91
2023-05-06T02:18:13.130Z,95397.78
2023-05-06T02:19:19.770Z,95395.69
2023-05-06T02:20:21.278Z,95398.59
2023-05-06T02:21:23.166Z,95398.09
2023-05-06T02:22:24.709Z,95397.28
2023-05-06T02:23:26.271Z,95407.09
2023-05-06T02:24:28.790Z,95402.06
2023-05-06T02:25:30.341Z,95401.56
2023-05-06T02:26:31.882Z,95410.06
2023-05-06T02:27:33.397Z,95409.50
2023-05-06T02:28:34.909Z,95406.88
2023-05-06T02:29:39.576Z,95406.34
2023-05-06T02:30:41.164Z,95407.94
2023-05-06T02:31:42.853Z,95410.34
2023-05-06T02:32:44.413Z,95412.78
2023-05-06T02:33:46.133Z,95406.13
2023-05-06T02:34:47.722Z,95405.59
2023-05-06T02:35:49.339Z,95412.25
2023-05-06T02:36:51.562Z,95414.09
2023-05-06T02:37:53.100Z,95411.44
2023-05-06T02:38:54.536Z,95419.44
2023-05-06T02:39:56.014Z,95415.44
2023-05-06T02:40:58.105Z,95409.63
2023-05-06T02:42:01.132Z,95398.47
2023-05-06T02:43:02.646Z,95403.50
2023-05-06T02:44:04.324Z,95395.00
2023-05-06T02:45:08.750Z,95402.19
2023-05-06T02:46:11.394Z,95403.75
2023-05-06T02:47:13.048Z,95401.59
2023-05-06T02:48:14.524Z,95399.44
2023-05-06T02:49:16.068Z,95415.38
2023-05-06T02:50:23.260Z,95410.84
2023-05-06T02:51:24.817Z,95405.78
2023-05-06T02:52:26.278Z,95404.69
2023-05-06T02:53:27.802Z,95407.66
2023-05-06T02:54:29.395Z,95400.22
2023-05-06T02:55:30.996Z,95397.06
2023-05-06T02:56:32.470Z,95388.84
2023-05-06T02:57:34.256Z,95389.94
2023-05-06T02:58:35.920Z,95387.84
2023-05-06T02:59:37.425Z,95384.13
2023-05-06T03:00:38.987Z,95378.81
2023-05-06T03:01:42.701Z,95392.88
2023-05-06T03:02:45.099Z,95391.81
2023-05-06T03:03:48.812Z,95383.63
2023-05-06T03:04:53.336Z,95387.31
2023-05-06T03:05:56.159Z,95387.88
2023-05-06T03:06:57.783Z,95377.78
2023-05-06T03:07:59.244Z,95373.53
2023-05-06T03:09:00.734Z,95376.19
2023-05-06T03:10:02.922Z,95368.47
2023-05-06T03:11:08.512Z,95367.63
2023-05-06T03:12:11.886Z,95367.06
2023-05-06T03:13:13.817Z,95370.00
2023-05-06T03:14:15.877Z,95375.56
2023-05-06T03:15:19.709Z,95372.66
2023-05-06T03:16:24.571Z,95368.69
2023-05-06T03:17:31.029Z,95368.13
2023-05-06T03:18:32.689Z,95369.72
2023-05-06T03:19:34.416Z,95370.25
2023-05-06T03:20:36.426Z,95368.91
2023-05-06T03:21:41.661Z,95368.09
2023-05-06T03:22:43.567Z,95376.06
2023-05-06T03:23:45.047Z,95372.31
2023-05-06T03:24:46.668Z,95371.25
2023-05-06T03:25:48.121Z,95373.34
2023-05-06T03:26:51.845Z,95373.34
2023-05-06T03:27:53.612Z,95372.31
2023-05-06T03:28:58.082Z,95369.66
2023-05-06T03:29:59.876Z,95370.69
2023-05-06T03:31:04.914Z,95367.50
2023-05-06T03:32:12.107Z,95364.06
2023-05-06T03:33:17.096Z,95359.00
2023-05-06T03:34:18.685Z,95358.78
2023-05-06T03:35:20.720Z,95356.13
2023-05-06T03:36:27.846Z,95361.66
2023-05-06T03:37:30.643Z,95355.81
2023-05-06T03:38:35.041Z,95353.69
2023-05-06T03:39:39.852Z,95369.03
2023-05-06T03:40:41.482Z,95362.38
2023-05-06T03:41:43.298Z,95362.66
2023-05-06T03:42:48.647Z,95362.66
2023-05-06T03:43:50.592Z,95366.38
2023-05-06T03:44:54.504Z,95363.16
2023-05-06T03:45:59.057Z,95368.47
2023-05-06T03:47:01.244Z,95367.41
2023-05-06T03:48:07.651Z,95365.53
2023-05-06T03:49:12.619Z,95364.75
2023-05-06T03:50:15.082Z,95375.59
2023-05-06T03:51:17.132Z,95366.06
2023-05-06T03:52:21.245Z,95365.28
2023-05-06T03:53:23.157Z,95367.38
2023-05-06T03:54:27.970Z,95368.69
2023-05-06T03:55:29.701Z,95375.84
2023-05-06T03:56:31.774Z,95371.28
2023-05-06T03:57:36.359Z,95370.97
2023-05-06T03:58:38.906Z,95377.34
2023-05-06T03:59:43.807Z,95374.69
2023-05-06T04:00:45.717Z,95373.41
2023-05-06T04:01:47.320Z,95381.09
2023-05-06T04:02:49.787Z,95379.50
2023-05-06T04:03:57.821Z,95379.50
2023-05-06T04:05:00.275Z,95380.53
2023-05-06T04:06:03.195Z,95388.00
2023-05-06T04:07:04.842Z,95404.97
2023-05-06T04:08:06.394Z,95401.81
2023-05-06T04:09:08.991Z,95399.69
2023-05-06T04:10:13.978Z,95404.50
2023-05-06T04:11:20.583Z,95408.47
2023-05-06T04:12:23.218Z,95399.69
2023-05-06T04:13:27.827Z,95395.75
2023-05-06T04:14:32.034Z,95381.69
2023-05-06T04:15:37.687Z,95377.16
2023-05-06T04:16:42.935Z,95373.69
2023-05-06T04:17:46.781Z,95361.94
2023-05-06T04:18:49.402Z,95358.13
2023-05-06T04:19:54.706Z,95357.38
2023-05-06T04:20:56.264Z,95357.16
2023-05-06T04:21:58.609Z,95354.53
2023-05-06T04:23:00.410Z,95356.69
2023-05-06T04:24:02.462Z,95352.66
2023-05-06T04:25:12.833Z,95356.69
2023-05-06T04:26:16.903Z,95345.88
2023-05-06T04:27:19.835Z,95348.28
2023-05-06T04:28:21.800Z,95347.22
2023-05-06T04:29:26.231Z,95350.16
2023-05-06T04:33:00.680Z,95357.06
2023-05-06T04:34:02.701Z,95367.16
2023-05-06T04:35:07.703Z,95367.97
2023-05-06T04:36:10.084Z,95369.81
2023-05-06T04:37:14.567Z,95371.44
2023-05-06T04:38:25.863Z,95365.31
2023-05-06T04:39:28.705Z,95362.13
2023-05-06T04:40:31.434Z,95362.13
2023-05-06T04:41:33.195Z,95372.44
2023-05-06T04:42:35.029Z,95371.34
2023-05-06T04:43:43.964Z,95375.06
2023-05-06T04:44:51.274Z,95366.84
2023-05-06T04:45:56.653Z,95374.28
2023-05-06T04:47:02.139Z,95367.84
2023-05-06T04:48:03.967Z,95373.94
2023-05-06T04:49:07.104Z,95368.41
2023-05-06T04:50:09.485Z,95375.53
2023-05-06T04:51:11.065Z,95370.97
2023-05-06T04:52:14.998Z,95373.63
2023-05-06T04:53:16.674Z,95371.78
2023-05-06T04:54:18.202Z,95368.34
2023-05-06T04:55:20.658Z,95374.69
2023-05-06T04:56:26.370Z,95378.38
2023-05-06T04:57:33.339Z,95380.22
2023-05-06T04:58:37.077Z,95380.50
2023-05-06T04:59:41.743Z,95379.44
2023-05-06T05:00:46.852Z,95371.50
2023-05-06T05:01:48.450Z,95380.22
2023-05-06T05:02:52.534Z,95375.19
2023-05-06T05:03:54.784Z,95377.03
2023-05-06T05:04:57.258Z,95381.28
2023-05-06T05:06:01.118Z,95378.69
2023-05-06T05:07:02.732Z,95382.09
2023-05-06T05:08:05.920Z,95375.75
2023-05-06T05:09:10.670Z,95377.66
2023-05-06T05:10:14.807Z,95377.41
2023-05-06T05:11:19.013Z,95376.91
2023-05-06T05:12:20.812Z,95382.47
2023-05-06T05:13:26.139Z,95380.09
2023-05-06T05:14:29.618Z,95382.78
2023-05-06T05:15:33.778Z,95383.31
2023-05-06T05:16:35.873Z,95381.75
2023-05-06T05:17:38.953Z,95378.84
2023-05-06T05:18:41.282Z,95379.13
2023-05-06T05:19:49.454Z,95387.13
2023-05-06T05:20:52.437Z,95383.41
2023-05-06T05:21:54.888Z,95386.06
2023-05-06T05:22:58.043Z,95379.72
2023-05-06T05:23:59.617Z,95379.47
2023-05-06T05:25:01.471Z,95379.50
2023-05-06T05:26:06.378Z,95381.63
2023-05-06T05:27:11.033Z,95389.59
2023-05-06T05:28:16.018Z,95395.41
2023-05-06T05:29:18.193Z,95395.16
2023-05-06T05:30:21.452Z,95394.16
2023-05-06T05:31:24.373Z,95396.59
2023-05-06T05:32:26.580Z,95389.47
2023-05-06T05:33:28.168Z,95394.03
2023-05-06T05:34:30.191Z,95402.31
2023-05-06T05:35:32.192Z,95390.97
2023-05-06T05:36:36.728Z,95386.47
2023-05-06T05:37:41.530Z,95393.97
2023-05-06T05:38:43.804Z,95400.91
2023-05-06T05:39:45.566Z,95391.09
2023-05-06T05:40:48.432Z,95387.66
2023-05-06T05:41:50.164Z,95385.25
2023-05-06T05:42:54.026Z,95389.78
2023-05-06T05:44:02.179Z,95389.81
2023-05-06T05:45:04.554Z,95389.56
2023-05-06T05:46:06.403Z,95385.31
2023-05-06T05:47:08.259Z,95393.00
2023-05-06T05:48:10.508Z,95391.19
2023-05-06T05:49:12.877Z,95391.72
2023-05-06T05:50:14.648Z,95400.75
2023-05-06T05:51:16.207Z,95397.56
2023-05-06T05:52:19.232Z,95395.16
2023-05-06T05:53:20.891Z,95400.47
2023-05-06T05:54:24.444Z,95401.53
2023-05-06T05:55:26.065Z,95402.06
2023-05-06T05:56:29.581Z,95398.31
2023-05-06T05:57:33.416Z,95395.66
2023-05-06T05:58:38.645Z,95395.38
2023-05-06T05:59:40.184Z,95396.16
2023-05-06T06:00:42.187Z,95404.66
2023-05-06T06:01:47.230Z,95405.44
2023-05-06T06:02:49.193Z,95401.41
2023-05-06T06:03:56.316Z,95404.03
2023-05-06T06:04:58.293Z,95405.16
2023-05-06T06:05:59.875Z,95393.47
2023-05-06T06:07:02.134Z,95403.53
2023-05-06T06:08:06.570Z,95402.47
2023-05-06T06:09:09.117Z,95400.66
2023-05-06T06:10:13.881Z,95399.84
2023-05-06T06:11:17.851Z,95400.66
2023-05-06T06:12:19.580Z,95408.38
2023-05-06T06:13:21.689Z,95404.38
2023-05-06T06:14:23.399Z,95407.03
2023-05-06T06:15:25.331Z,95401.41
2023-05-06T06:16:28.545Z,95406.19
2023-05-06T06:17:31.432Z,95402.44
2023-05-06T06:18:33.272Z,95405.41
2023-05-06T06:20:44.769Z,95398.94
2023-05-06T06:21:50.324Z,95393.59
2023-05-06T06:22:52.413Z,95395.44
2023-05-06T06:23:54.884Z,95393.59
2023-05-06T06:24:56.590Z,95391.19
2023-05-06T06:25:58.740Z,95391.50
2023-05-06T06:27:01.472Z,95389.63
2023-05-06T06:28:05.308Z,95388.06
2023-05-06T06:29:06.956Z,95392.34
2023-05-06T06:30:08.992Z,95396.34
2023-05-06T06:31:11.145Z,95393.16
2023-05-06T06:32:13.268Z,95397.44
2023-05-06T06:33:14.840Z,95393.72
2023-05-06T06:34:19.772Z,95391.84
2023-05-06T06:35:21.408Z,95392.38
2023-05-06T06:36:22.997Z,95398.22
2023-05-06T06:37:26.786Z,95400.94
2023-05-06T06:38:28.447Z,95397.69
2023-05-06T06:39:31.035Z,95399.25
2023-05-06T06:40:32.637Z,95394.44
2023-05-06T06:41:34.252Z,95396.03
2023-05-06T06:42:36.127Z,95390.50
2023-05-06T06:43:59.656Z,95398.44
2023-05-06T06:45:04.676Z,95381.13
2023-05-06T06:46:08.850Z,95388.56
2023-05-06T06:47:10.579Z,95392.59
2023-05-06T06:48:12.583Z,95386.97
2023-05-06T06:49:14.157Z,95390.66
2023-05-06T06:50:15.969Z,95389.88
2023-05-06T06:51:20.134Z,95382.38
2023-05-06T06:52:21.685Z,95383.69
2023-05-06T06:53:25.760Z,95390.84
2023-05-06T06:54:27.393Z,95387.94
2023-05-06T06:55:30.636Z,95381.56
2023-05-06T06:56:34.537Z,95389.22
2023-05-06T06:57:37.439Z,95389.94
2023-05-06T06:58:39.100Z,95397.91
2023-05-06T06:59:40.724Z,95378.16
2023-05-06T07:00:44.794Z,95385.28
2023-05-06T07:01:46.479Z,95392.44
2023-05-06T07:02:49.394Z,95390.81
2023-05-06T07:03:53.373Z,95394.03
2023-05-06T07:04:54.887Z,95396.75
2023-05-06T07:05:57.549Z,95397.16
2023-05-06T07:06:59.113Z,95394.22
2023-05-06T07:08:00.758Z,95392.41
2023-05-06T07:09:02.394Z,95403.13
2023-05-06T07:10:04.522Z,95403.09
2023-05-06T07:11:06.960Z,95396.69
2023-05-06T07:12:08.634Z,95405.22
2023-05-06T07:13:10.640Z,95396.38
2023-05-06T07:14:13.297Z,95399.31
2023-05-06T07:15:15.009Z,95404.63
2023-05-06T07:16:19.034Z,95397.88
2023-05-06T07:17:23.418Z,95405.03
2023-05-06T07:18:27.495Z,95401.22
2023-05-06T07:19:29.483Z,95404.06
2023-05-06T07:20:31.088Z,95401.34
2023-05-06T07:21:34.584Z,95397.06
2023-05-06T07:22:36.404Z,95403.72
2023-05-06T07:23:40.208Z,95400.50
2023-05-06T07:24:41.849Z,95400.78
2023-05-06T07:25:43.690Z,95401.00
2023-05-06T07:26:47.260Z,95402.38
2023-05-06T07:27:48.931Z,95402.38
2023-05-06T07:28:50.934Z,95407.72
2023-05-06T07:29:52.548Z,95396.50
2023-05-06T07:30:54.238Z,95398.41
2023-05-06T07:32:00.131Z,95403.06
2023-05-06T07:33:04.097Z,95396.59
2023-05-06T07:34:06.077Z,95399.72
2023-05-06T07:35:08.883Z,95406.31
2023-05-06T07:36:10.870Z,95401.41
2023-05-06T07:37:13.493Z,95398.47
2023-05-06T07:38:15.113Z,95397.91
2023-05-06T07:39:16.717Z,95397.91
2023-05-06T07:40:19.998Z,95393.69
2023-05-06T07:41:21.466Z,95396.53
2023-05-06T07:42:24.129Z,95396.25
2023-05-06T07:43:25.938Z,95402.09
2023-05-06T07:44:27.404Z,95394.38
2023-05-06T07:45:29.050Z,95396.81
2023-05-06T07:46:33.193Z,95394.59
2023-05-06T07:47:35.682Z,95392.66
2023-05-06T07:48:37.606Z,95393.31
2023-05-06T07:49:39.638Z,95398.09
2023-05-06T07:50:43.807Z,95398.09
2023-05-06T07:51:45.590Z,95403.97
2023-05-06T07:52:49.689Z,95403.44
2023-05-06T07:53:51.298Z,95401.84
2023-05-06T07:54:53.318Z,95404.59
2023-05-06T07:56:01.719Z,95404.00
2023-05-06T07:57:05.814Z,95401.19
2023-05-06T07:58:09.781Z,95399.59
2023-05-06T07:59:11.792Z,95399.38
2023-05-06T08:00:13.818Z,95397.78
2023-05-06T08:01:18.191Z,95401.88
2023-05-06T08:02:19.975Z,95396.38
2023-05-06T08:03:22.603Z,95388.63
2023-05-06T08:04:24.436Z,95400.63
2023-05-06T08:05:25.935Z,95391.22
2023-05-06T08:06:27.480Z,95397.72
2023-05-06T08:07:29.102Z,95391.66
2023-05-06T08:08:30.884Z,95398.75
2023-05-06T08:09:32.648Z,95391.66
2023-05-06T08:10:34.287Z,95392.69
2023-05-06T08:11:36.758Z,95395.06
2023-05-06T08:12:38.495Z,95395.28
2023-05-06T08:13:42.430Z,95394.47
2023-05-06T08:14:44.091Z,95392.94
2023-05-06T08:15:45.888Z,95395.28
2023-05-06T08:16:50.752Z,95402.44
2023-05-06T08:17:52.410Z,95392.22
2023-05-06T08:18:54.788Z,95392.22
2023-05-06T08:19:56.523Z,95392.94
2023-05-06T08:20:58.279Z,95396.38
2023-05-06T08:21:59.796Z,95396.75
2023-05-06T08:23:03.834Z,95391.59
2023-05-06T08:24:05.592Z,95391.53
2023-05-06T08:25:07.247Z,95390.28
2023-05-06T08:26:11.141Z,95382.00
2023-05-06T08:27:15.360Z,95390.00
2023-05-06T08:28:17.014Z,95392.69
2023-05-06T08:29:19.151Z,95385.97
2023-05-06T08:30:21.832Z,95385.19
2023-05-06T08:31:23.708Z,95386.47
2023-05-06T08:32:25.386Z,95380.09
2023-05-06T08:33:28.039Z,95384.38
2023-05-06T08:34:31.783Z,95390.00
2023-05-06T08:35:33.700Z,95379.25
2023-05-06T08:36:37.855Z,95386.44
2023-05-06T08:37:41.089Z,95388.03
2023-05-06T08:38:50.563Z,95384.53
2023-05-06T08:39:52.283Z,95385.06
2023-05-06T08:40:54.357Z,95385.94
2023-05-06T08:41:56.463Z,95380.72
2023-05-06T08:43:00.100Z,95381.88
2023-05-06T08:44:02.302Z,95380.53
2023-05-06T08:45:05.574Z,95390.63
2023-05-06T08:46:07.357Z,95377.50
2023-05-06T08:47:08.999Z,95380.22
2023-05-06T08:48:10.630Z,95371.06
2023-05-06T08:49:15.412Z,95375.84
2023-05-06T08:50:18.728Z,95372.06
2023-05-06T08:51:24.837Z,95372.53
2023-05-06T08:52:28.979Z,95376.16
2023-05-06T08:53:32.921Z,95365.13
2023-05-06T08:54:38.177Z,95366.97
2023-05-06T08:55:45.890Z,95367.38
2023-05-06T08:56:56.359Z,95365.41
2023-05-06T08:57:58.787Z,95364.06
2023-05-06T08:59:01.310Z,95358.41
2023-05-06T09:00:04.788Z,95355.38
2023-05-06T09:01:07.452Z,95363.31
2023-05-06T09:02:10.552Z,95358.72
2023-05-06T09:03:12.324Z,95358.63
2023-05-06T09:04:16.086Z,95361.00
2023-05-06T09:05:17.739Z,95358.31
2023-05-06T09:06:19.369Z,95356.06
2023-05-06T09:07:21.440Z,95360.91
2023-05-06T09:08:23.296Z,95359.25
2023-05-06T09:09:25.457Z,95358.25
2023-05-06T09:10:35.318Z,95354.94
2023-05-06T09:11:40.714Z,95355.94
2023-05-06T09:12:42.418Z,95354.25
2023-05-06T09:13:43.966Z,95360.19
2023-05-06T09:14:49.248Z,95349.63
2023-05-06T09:15:53.886Z,95351.63
2023-05-06T09:16:55.690Z,95354.44
2023-05-06T09:17:58.145Z,95357.16
2023-05-06T09:18:59.703Z,95353.66
2023-05-06T09:20:01.417Z,95353.88
2023-05-06T09:21:04.350Z,95348.13
2023-05-06T09:22:06.079Z,95350.34
2023-05-06T09:23:11.065Z,95353.28
2023-05-06T09:24:14.257Z,95352.84
2023-05-06T09:25:16.117Z,95349.34
2023-05-06T09:26:17.746Z,95350.81
2023-05-06T09:27:21.636Z,95348.97
2023-05-06T09:28:23.211Z,95341.19
2023-05-06T09:29:26.956Z,95345.56
2023-05-06T09:30:29.197Z,95343.53
2023-05-06T09:31:30.916Z,95340.56
2023-05-06T09:32:34.317Z,95340.44
2023-05-06T09:33:37.326Z,95331.00
2023-05-06T09:34:42.035Z,95333.63
2023-05-06T09:35:44.332Z,95331.91
2023-05-06T09:36:45.981Z,95337.16
2023-05-06T09:37:48.427Z,95331.81
2023-05-06T09:38:50.120Z,95332.19
2023-05-06T09:39:54.049Z,95336.06
2023-05-06T09:40:55.814Z,95338.22
2023-05-06T09:41:57.486Z,95338.91
2023-05-06T09:43:02.107Z,95332.28
2023-05-06T09:44:03.770Z,95327.81
2023-05-06T09:45:08.325Z,95325.84
2023-05-06T09:46:16.755Z,95335.63
2023-05-06T09:47:18.602Z,95335.13
2023-05-06T09:48:27.300Z,95330.25
2023-05-06T09:49:29.609Z,95329.59
2023-05-06T09:50:32.553Z,95334.38
2023-05-06T09:51:34.258Z,95334.03
2023-05-06T09:52:36.984Z,95328.78
2023-05-06T09:53:39.074Z,95329.41
2023-05-06T09:54:41.507Z,95334.00
2023-05-06T09:55:43.848Z,95325.22
2023-05-06T09:56:46.557Z,95331.00
2023-05-06T09:57:49.772Z,95329.00
2023-05-06T09:58:55.440Z,95326.97
2023-05-06T09:59:58.179Z,95326.06
2023-05-06T10:01:01.383Z,95327.34
2023-05-06T10:02:08.292Z,95320.75
2023-05-06T10:03:11.867Z,95328.19
2023-05-06T10:04:18.158Z,95328.88
2023-05-06T10:05:20.935Z,95317.09
2023-05-06T10:06:23.158Z,95318.56
2023-05-06T10:07:28.726Z,95327.25
2023-05-06T10:08:33.610Z,95320.00
2023-05-06T10:09:40.216Z,95315.19
2023-05-06T10:10:42.592Z,95316.34
2023-05-06T10:11:47.282Z,95324.25
2023-05-06T10:12:50.062Z,95321.56
2023-05-06T10:13:52.282Z,95313.84
2023-05-06T10:14:54.228Z,95310.53
2023-05-06T10:15:56.275Z,95304.75
2023-05-06T10:16:59.184Z,95310.47
2023-05-06T10:18:04.422Z,95308.72
2023-05-06T10:19:09.985Z,95310.00
2023-05-06T10:20:14.854Z,95303.03
2023-05-06T10:21:22.053Z,95306.22
2023-05-06T10:22:40.009Z,95306.56
2023-05-06T10:23:55.558Z,95307.53
2023-05-06T10:25:03.695Z,95306.59
2023-05-06T10:26:11.341Z,95304.69
2023-05-06T10:27:18.542Z,95306.28
2023-05-06T10:28:26.724Z,95303.31
2023-05-06T10:29:36.159Z,95307.88
2023-05-06T10:30:41.892Z,95301.88
2023-05-06T10:31:49.104Z,95298.72
2023-05-06T10:32:57.308Z,95297.47
2023-05-06T10:34:03.041Z,95306.63
2023-05-06T10:35:14.770Z,95303.13
2023-05-06T10:36:27.873Z,95303.72
2023-05-06T10:37:32.712Z,95291.13
2023-05-06T10:38:45.547Z,95291.28
2023-05-06T10:39:49.689Z,95283.97
2023-05-06T10:40:52.925Z,95290.16
2023-05-06T10:41:54.748Z,95284.19
2023-05-06T10:43:35.796Z,95286.66
2023-05-06T10:45:10.028Z,95284.97
2023-05-06T10:46:18.296Z,95290.03
2023-05-06T10:47:20.044Z,95290.50
2023-05-06T10:48:21.563Z,95287.28
2023-05-06T10:49:24.137Z,95281.97
2023-05-06T10:50:28.188Z,95284.19
2023-05-06T10:51:31.526Z,95280.25
2023-05-06T10:52:46.549Z,95281.34
2023-05-06T10:54:09.352Z,95283.56
2023-05-06T10:55:26.301Z,95282.13
2023-05-06T10:56:30.365Z,95276.59
2023-05-06T10:57:41.133Z,95276.13
2023-05-06T10:58:47.793Z,95283.25
2023-05-06T10:59:52.234Z,95281.50
2023-05-06T11:00:56.925Z,95279.28
2023-05-06T11:02:07.624Z,95277.06
2023-05-06T11:03:12.551Z,95279.66
2023-05-06T11:04:16.420Z,95271.75
2023-05-06T11:05:18.310Z,95271.09
2023-05-06T11:07:06.286Z,95270.97
2023-05-06T11:08:10.066Z,95272.25
2023-05-06T11:09:23.097Z,95273.03
2023-05-06T11:10:34.013Z,95261.50
2023-05-06T11:11:57.745Z,95272.25
2023-05-06T11:13:22.454Z,95260.41
2023-05-06T11:14:31.700Z,95270.16
2023-05-06T11:15:36.618Z,95269.69
2023-05-06T11:16:48.945Z,95270.34
2023-05-06T11:17:50.816Z,95274.28
2023-05-06T11:18:54.060Z,95268.13
2023-05-06T11:20:20.437Z,95270.97
2023-05-06T11:21:31.047Z,95256.41
2023-05-06T11:22:40.302Z,95262.44
2023-05-06T11:23:42.049Z,95257.06
2023-05-06T11:24:44.018Z,95255.81
2023-05-06T11:25:47.265Z,95247.28
2023-05-06T11:26:49.910Z,95257.25
2023-05-06T11:27:51.511Z,95252.19
2023-05-06T11:28:53.156Z,95252.50
2023-05-06T11:29:54.858Z,95268.16
2023-05-06T11:30:56.741Z,95262.53
2023-05-06T11:31:58.727Z,95268.53
2023-05-06T11:33:05.693Z,95260.09
2023-05-06T11:34:12.129Z,95264.19
2023-05-06T11:35:17.113Z,95256.13
2023-05-06T11:36:23.904Z,95259.78
2023-05-06T11:37:28.857Z,95254.88
2023-05-06T11:38:48.106Z,95251.09
2023-05-06T11:39:49.905Z,95258.88
2023-05-06T11:40:51.717Z,95249.56
2023-05-06T11:41:53.518Z,95247.81
2023-05-06T11:42:55.092Z,95251.47
2023-05-06T11:43:56.538Z,95255.91
2023-05-06T11:45:02.080Z,95248.47
2023-05-06T11:46:04.371Z,95241.66
2023-05-06T11:47:09.323Z,95259.38
2023-05-06T11:48:17.855Z,95247.50
2023-05-06T11:49:19.557Z,95247.50
2023-05-06T11:50:22.264Z,95255.72
2023-05-06T11:51:25.965Z,95248.63
2023-05-06T11:52:30.302Z,95251.63
2023-05-06T11:53:31.938Z,95251.31
2023-05-06T11:54:38.298Z,95248.63
2023-05-06T11:55:40.017Z,95248.78
2023-05-06T11:56:47.160Z,95248.47
2023-05-06T11:57:52.472Z,95252.13
2023-05-06T11:58:54.034Z,95241.50
2023-05-06T11:59:55.882Z,95239.63
2023-05-06T12:01:01.921Z,95247.69
2023-05-06T12:02:05.672Z,95243.72
2023-05-06T12:03:14.490Z,95242.00
2023-05-06T12:04:20.882Z,95239.75
2023-05-06T12:05:28.581Z,95243.38
2023-05-06T12:06:37.059Z,95242.44
2023-05-06T12:07:42.486Z,95240.53
2023-05-06T12:08:45.293Z,95245.28
2023-05-06T12:09:48.991Z,95240.56
2023-05-06T12:11:02.481Z,95242.47
2023-05-06T12:12:05.269Z,95241.84
2023-05-06T12:13:07.388Z,95234.38
2023-05-06T12:14:13.607Z,95234.06
2023-05-06T12:15:15.615Z,95235.00
2023-05-06T12:16:17.926Z,95226.25
2023-05-06T12:17:20.063Z,95228.44
2023-05-06T12:18:23.221Z,95221.47
2023-05-06T12:19:25.032Z,95229.53
2023-05-06T12:20:26.739Z,95230.78
2023-05-06T12:21:28.955Z,95233.63
2023-05-06T12:22:30.526Z,95235.03
2023-05-06T12:23:33.033Z,95230.47
2023-05-06T12:24:34.509Z,95227.81
2023-05-06T12:25:38.633Z,95228.72
2023-05-06T12:26:48.349Z,95226.50
2023-05-06T12:27:52.905Z,95224.09
2023-05-06T12:29:10.963Z,95235.34
2023-05-06T12:30:13.441Z,95232.00
2023-05-06T12:31:22.450Z,95234.50
2023-05-06T12:32:24.195Z,95226.63
2023-05-06T12:33:27.446Z,95229.13
2023-05-06T12:34:43.912Z,95224.94